Monte-Carlo, Monaco
Current Conditions -  °F | °C
As of 5:00 AM on Tuesday 23 Dec 2014 (Local Time) from LFMN Reporting Station
Broken Clouds Broken Clouds  
Wind Chill: 40°   Ceiling: 3300
Heat Index: 46°   Visibility: 6mi
Dew Point: 34°   Wind: 14mph
Humidity: 62%   Direction: 330°NNW
Pressure: 30.39"   Gusts: NA
Location:  43.75°N, 7.42°E
Report Text: LFMN 230300Z 33012KT 9999 BKN033 08/01 Q1029 NOSIG
Loading
Personal Weather Stations






























Interactive Weather Map New forecast layout! Learn more

10-Day Weather Forecast

Advertisements
Track Severe Weather on mobile